Time;durP1;ratioP1;P1;durP2;ratioP2;P2;SDS_P1;SDS_P2;PMS_P1;PMS_P2;Temp;Humidity;BMP_temperature;BMP_pressure;BME280_temperature;BME280_humidity;BME280_pressure;Samples;Min_cycle;Max_cycle;Signal;HPM_P1;HPM_P2
2023/11/18 00:01:23;;;;;;;7.43;6.63;;;;;;;;;;4941911;28;20238;-87
2023/11/18 00:03:51;;;;;;;7.47;6.77;;;;;;;;;;4950767;28;20733;-86
2023/11/18 00:06:17;;;;;;;20.60;14.77;;;;;;;;;;4963257;28;20233;-87
2023/11/18 00:08:43;;;;;;;19.33;14.80;;;;;;;;;;4959945;28;20604;-87
2023/11/18 00:11:13;;;;;;;18.43;13.70;;;;;;;;;;4967068;28;20240;-87
2023/11/18 00:13:44;;;;;;;15.07;10.87;;;;;;;;;;4950907;28;20241;-87
2023/11/18 00:16:13;;;;;;;13.57;11.23;;;;;;;;;;4945684;28;20237;-87
2023/11/18 00:18:42;;;;;;;12.63;10.50;;;;;;;;;;4970319;28;20221;-86
2023/11/18 00:21:12;;;;;;;13.83;12.07;;;;;;;;;;4955077;28;20318;-86
2023/11/18 00:23:38;;;;;;;12.17;10.97;;;;;;;;;;4950765;28;20590;-87
2023/11/18 00:26:07;;;;;;;13.13;10.57;;;;;;;;;;4940468;28;20217;-86
2023/11/18 00:28:32;;;;;;;12.07;10.10;;;;;;;;;;4960245;28;20237;-86
2023/11/18 00:30:58;;;;;;;10.97;9.37;;;;;;;;;;4941884;28;20239;-86
2023/11/18 00:33:27;;;;;;;13.77;11.03;;;;;;;;;;4950288;28;20232;-86
2023/11/18 00:35:55;;;;;;;10.20;9.20;;;;;;;;;;4962254;28;20276;-86
2023/11/18 00:38:23;;;;;;;9.33;8.43;;;;;;;;;;4957884;28;21094;-86
2023/11/18 00:40:48;;;;;;;9.83;8.83;;;;;;;;;;4930821;28;20226;-86
2023/11/18 00:43:14;;;;;;;8.70;7.90;;;;;;;;;;4926062;28;20234;-87
2023/11/18 00:45:41;;;;;;;8.07;7.27;;;;;;;;;;4943618;28;20217;-87
2023/11/18 00:48:06;;;;;;;8.50;7.63;;;;;;;;;;4934656;29;20222;-87
2023/11/18 00:50:33;;;;;;;9.43;8.47;;;;;;;;;;4927627;28;20203;-86
2023/11/18 00:52:59;;;;;;;8.37;7.57;;;;;;;;;;4929230;28;20237;-86
2023/11/18 00:55:27;;;;;;;9.23;7.07;;;;;;;;;;4941819;28;20215;-87
2023/11/18 00:57:54;;;;;;;7.60;6.73;;;;;;;;;;4944782;28;20226;-86
2023/11/18 01:00:23;;;;;;;8.70;7.87;;;;;;;;;;4954560;28;20320;-87
2023/11/18 01:02:49;;;;;;;8.10;7.40;;;;;;;;;;4963719;28;20226;-87
2023/11/18 01:05:15;;;;;;;8.23;6.73;;;;;;;;;;4967553;28;20328;-86
2023/11/18 01:07:43;;;;;;;8.57;7.47;;;;;;;;;;4952067;28;20268;-86
2023/11/18 01:10:13;;;;;;;7.53;6.83;;;;;;;;;;4954888;28;20217;-87
2023/11/18 01:12:41;;;;;;;7.60;6.87;;;;;;;;;;4973818;28;20255;-86
2023/11/18 01:15:10;;;;;;;6.53;5.93;;;;;;;;;;4979698;28;20200;-86
2023/11/18 01:17:38;;;;;;;6.57;5.37;;;;;;;;;;4956303;28;20218;-87
2023/11/18 01:20:09;;;;;;;6.20;5.60;;;;;;;;;;4980471;28;20208;-86
2023/11/18 01:22:35;;;;;;;5.83;5.33;;;;;;;;;;4988678;28;20244;-85
2023/11/18 01:25:01;;;;;;;5.40;4.70;;;;;;;;;;4977722;28;20209;-87
2023/11/18 01:27:27;;;;;;;8.53;5.10;;;;;;;;;;4969567;28;20201;-86
2023/11/18 01:29:55;;;;;;;4.40;3.97;;;;;;;;;;4961421;28;20205;-86
2023/11/18 01:32:20;;;;;;;4.67;4.27;;;;;;;;;;4986400;28;20225;-87
2023/11/18 01:34:50;;;;;;;4.53;4.13;;;;;;;;;;4974052;28;20223;-85
2023/11/18 01:37:22;;;;;;;4.70;4.30;;;;;;;;;;4967918;28;20229;-85
2023/11/18 01:39:47;;;;;;;4.40;3.63;;;;;;;;;;4954422;28;20715;-87
2023/11/18 01:42:13;;;;;;;4.40;4.00;;;;;;;;;;4951840;28;20248;-87
2023/11/18 01:44:41;;;;;;;4.27;3.87;;;;;;;;;;4973989;28;20216;-86
2023/11/18 01:47:07;;;;;;;4.57;3.67;;;;;;;;;;4936952;28;20296;-86
2023/11/18 01:49:39;;;;;;;3.70;3.40;;;;;;;;;;4955801;28;20227;-87
2023/11/18 01:52:07;;;;;;;3.60;3.30;;;;;;;;;;4977384;28;20281;-87
2023/11/18 01:54:34;;;;;;;3.40;3.17;;;;;;;;;;4954877;28;20217;-86
2023/11/18 01:57:05;;;;;;;3.37;3.07;;;;;;;;;;4951513;28;20304;-87
2023/11/18 01:59:37;;;;;;;3.30;3.10;;;;;;;;;;4968136;28;20224;-86
2023/11/18 02:02:05;;;;;;;3.83;3.53;;;;;;;;;;4961659;28;20232;-86
2023/11/18 02:04:36;;;;;;;3.97;3.57;;;;;;;;;;4949801;28;20233;-86
2023/11/18 02:07:08;;;;;;;6.80;3.17;;;;;;;;;;4960737;28;20205;-86
2023/11/18 02:09:34;;;;;;;3.80;3.50;;;;;;;;;;4955135;28;20244;-86
2023/11/18 02:12:23;;;;;;;3.27;3.07;;;;;;;;;;4957349;28;20237;-87
2023/11/18 02:14:49;;;;;;;3.50;3.20;;;;;;;;;;4950887;28;20225;-86
2023/11/18 02:17:17;;;;;;;3.80;3.50;;;;;;;;;;4990129;28;20374;-86
2023/11/18 02:19:43;;;;;;;3.33;3.03;;;;;;;;;;4976693;28;20224;-87
2023/11/18 02:22:09;;;;;;;6.40;3.60;;;;;;;;;;4945149;28;20251;-87
2023/11/18 02:24:40;;;;;;;4.37;3.97;;;;;;;;;;4952947;28;20213;-86
2023/11/18 02:27:06;;;;;;;4.40;4.00;;;;;;;;;;4945366;28;20267;-85
2023/11/18 02:29:45;;;;;;;3.87;3.50;;;;;;;;;;4969690;28;20230;-86
2023/11/18 02:32:32;;;;;;;5.97;3.80;;;;;;;;;;4974270;28;20233;-86
2023/11/18 02:35:10;;;;;;;4.60;4.10;;;;;;;;;;4971631;28;20236;-86
2023/11/18 02:37:39;;;;;;;4.33;3.93;;;;;;;;;;4951026;28;20236;-87
2023/11/18 02:40:14;;;;;;;4.27;3.87;;;;;;;;;;4959809;28;20224;-87
2023/11/18 02:42:40;;;;;;;4.00;3.70;;;;;;;;;;4959451;28;20233;-86
2023/11/18 02:45:07;;;;;;;4.20;3.87;;;;;;;;;;4938140;28;20224;-86
2023/11/18 02:47:33;;;;;;;3.27;2.97;;;;;;;;;;4982247;28;20237;-87
2023/11/18 02:50:05;;;;;;;5.43;3.30;;;;;;;;;;4935765;28;20233;-87
2023/11/18 02:52:33;;;;;;;3.60;3.30;;;;;;;;;;4962133;28;20243;-87
2023/11/18 02:55:00;;;;;;;4.23;3.83;;;;;;;;;;4941472;28;20915;-87
2023/11/18 02:57:28;;;;;;;4.33;3.60;;;;;;;;;;4944587;28;20222;-86
2023/11/18 02:59:57;;;;;;;3.70;3.40;;;;;;;;;;4931493;28;20229;-88
2023/11/18 03:02:23;;;;;;;4.83;3.80;;;;;;;;;;4949166;28;20241;-87
2023/11/18 03:04:49;;;;;;;3.67;3.43;;;;;;;;;;4957250;28;20247;-86
2023/11/18 03:07:14;;;;;;;4.03;3.30;;;;;;;;;;4957620;28;20225;-87
2023/11/18 03:09:40;;;;;;;3.47;3.27;;;;;;;;;;4950789;28;20232;-86
2023/11/18 03:12:07;;;;;;;3.80;3.47;;;;;;;;;;4968946;28;20223;-86
2023/11/18 03:14:35;;;;;;;3.37;3.03;;;;;;;;;;4930135;28;20249;-86
2023/11/18 03:17:01;;;;;;;3.30;3.07;;;;;;;;;;4933117;28;20222;-86
2023/11/18 03:19:27;;;;;;;4.83;3.80;;;;;;;;;;4958181;28;20230;-87
2023/11/18 03:21:53;;;;;;;3.90;3.10;;;;;;;;;;4930560;28;20297;-87
2023/11/18 03:24:19;;;;;;;3.40;3.07;;;;;;;;;;4944618;28;20210;-86
2023/11/18 03:26:46;;;;;;;3.30;3.10;;;;;;;;;;4939915;28;20940;-86
2023/11/18 03:29:13;;;;;;;3.47;3.03;;;;;;;;;;4966227;28;20298;-86
2023/11/18 03:31:44;;;;;;;4.07;3.20;;;;;;;;;;4975643;28;20249;-86
2023/11/18 03:34:10;;;;;;;3.23;2.93;;;;;;;;;;4953599;28;20281;-86
2023/11/18 03:36:35;;;;;;;5.73;3.53;;;;;;;;;;4942693;28;20307;-87
2023/11/18 03:39:04;;;;;;;3.47;3.17;;;;;;;;;;4936068;28;20230;-87
2023/11/18 03:41:32;;;;;;;4.57;3.43;;;;;;;;;;4947635;28;20486;-87
2023/11/18 03:44:00;;;;;;;3.53;3.23;;;;;;;;;;4940258;28;20242;-84
2023/11/18 03:46:25;;;;;;;3.37;3.07;;;;;;;;;;4958615;28;20219;-85
2023/11/18 03:48:53;;;;;;;4.00;3.60;;;;;;;;;;4989589;28;20765;-87
2023/11/18 03:51:23;;;;;;;3.73;3.43;;;;;;;;;;4954132;28;20218;-87
2023/11/18 03:53:49;;;;;;;8.10;3.70;;;;;;;;;;4936123;28;20225;-86
2023/11/18 03:56:20;;;;;;;3.30;3.00;;;;;;;;;;4940106;28;20229;-86
2023/11/18 03:58:47;;;;;;;3.90;3.60;;;;;;;;;;4944657;28;20221;-85
2023/11/18 04:05:03;;;;;;;3.67;3.40;;;;;;;;;;4998292;28;20244;-86
2023/11/18 04:07:31;;;;;;;3.90;3.60;;;;;;;;;;4983228;28;20772;-86
2023/11/18 04:09:57;;;;;;;5.03;3.80;;;;;;;;;;4940313;28;20297;-86
2023/11/18 04:12:26;;;;;;;4.43;4.10;;;;;;;;;;4913348;28;20233;-85
2023/11/18 04:14:53;;;;;;;4.50;4.10;;;;;;;;;;4942000;28;20285;-86
2023/11/18 04:17:20;;;;;;;4.90;4.40;;;;;;;;;;4934862;28;20276;-85
2023/11/18 04:19:48;;;;;;;3.87;3.53;;;;;;;;;;4951054;28;20252;-85
2023/11/18 04:22:18;;;;;;;3.77;3.50;;;;;;;;;;4921504;28;20227;-85
2023/11/18 04:24:48;;;;;;;5.20;4.13;;;;;;;;;;4945850;28;20253;-85
2023/11/18 04:27:14;;;;;;;4.73;4.23;;;;;;;;;;4982150;28;20769;-86
2023/11/18 04:29:45;;;;;;;5.20;4.70;;;;;;;;;;4978205;28;20325;-87
2023/11/18 04:32:13;;;;;;;6.73;4.93;;;;;;;;;;4944800;28;20278;-87
2023/11/18 04:34:46;;;;;;;5.97;4.40;;;;;;;;;;4973594;28;20206;-87
2023/11/18 04:37:12;;;;;;;5.03;4.60;;;;;;;;;;4945070;28;20214;-87
2023/11/18 04:39:37;;;;;;;5.37;4.27;;;;;;;;;;4937765;29;20756;-87
2023/11/18 04:42:03;;;;;;;5.50;5.00;;;;;;;;;;4962084;28;20241;-85
2023/11/18 04:44:34;;;;;;;5.77;4.60;;;;;;;;;;4926294;28;20317;-87
2023/11/18 04:47:01;;;;;;;7.73;4.30;;;;;;;;;;4957522;28;20281;-86
2023/11/18 04:49:28;;;;;;;4.90;4.50;;;;;;;;;;4953409;28;20244;-85
2023/11/18 04:51:54;;;;;;;6.17;4.67;;;;;;;;;;4965978;28;20233;-86
2023/11/18 04:54:22;;;;;;;5.57;4.77;;;;;;;;;;4952197;28;21051;-86
2023/11/18 04:56:50;;;;;;;5.20;4.67;;;;;;;;;;4959885;28;20218;-85
2023/11/18 04:59:17;;;;;;;5.80;4.73;;;;;;;;;;4946500;28;20248;-85
2023/11/18 05:01:43;;;;;;;5.03;4.53;;;;;;;;;;4963331;28;21231;-86
2023/11/18 05:04:09;;;;;;;4.90;4.50;;;;;;;;;;4965775;28;20274;-86
2023/11/18 05:06:37;;;;;;;5.33;4.83;;;;;;;;;;4950571;28;20217;-85
2023/11/18 05:09:07;;;;;;;5.97;5.43;;;;;;;;;;4948292;28;20220;-86
2023/11/18 05:11:33;;;;;;;5.13;4.70;;;;;;;;;;4946332;28;20708;-85
2023/11/18 05:14:02;;;;;;;6.03;4.67;;;;;;;;;;4948529;28;20671;-85
2023/11/18 05:16:28;;;;;;;5.10;4.63;;;;;;;;;;4941885;28;20228;-86
2023/11/18 05:18:53;;;;;;;7.07;4.93;;;;;;;;;;4937902;28;20280;-85
2023/11/18 05:21:19;;;;;;;6.73;5.20;;;;;;;;;;4940729;28;20222;-87
2023/11/18 05:23:44;;;;;;;5.20;4.80;;;;;;;;;;4957089;28;20637;-86
2023/11/18 05:26:10;;;;;;;5.50;5.00;;;;;;;;;;4940303;28;20593;-86
2023/11/18 05:28:38;;;;;;;5.10;4.70;;;;;;;;;;4952490;28;20978;-86
2023/11/18 05:31:06;;;;;;;5.03;4.53;;;;;;;;;;4960421;28;20308;-85
2023/11/18 05:33:34;;;;;;;5.70;5.20;;;;;;;;;;4958841;28;20229;-86
2023/11/18 05:36:04;;;;;;;8.77;4.80;;;;;;;;;;4967603;28;20214;-86
2023/11/18 05:38:34;;;;;;;5.23;4.77;;;;;;;;;;4934681;28;20347;-86
2023/11/18 05:41:03;;;;;;;6.50;5.40;;;;;;;;;;4962925;28;20245;-87
2023/11/18 05:43:36;;;;;;;12.20;5.73;;;;;;;;;;4986674;28;20221;-85
2023/11/18 05:46:18;;;;;;;6.17;5.57;;;;;;;;;;4968146;28;20233;-86
2023/11/18 05:48:47;;;;;;;5.80;5.30;;;;;;;;;;4944716;28;20269;-87
2023/11/18 05:51:12;;;;;;;6.43;5.47;;;;;;;;;;4959858;28;20231;-87
2023/11/18 05:53:45;;;;;;;5.93;5.37;;;;;;;;;;4975142;28;20225;-85
2023/11/18 05:56:14;;;;;;;6.00;5.50;;;;;;;;;;4938280;28;20250;-87
2023/11/18 05:58:39;;;;;;;5.83;5.33;;;;;;;;;;4950527;28;20210;-86
2023/11/18 06:01:10;;;;;;;5.83;5.33;;;;;;;;;;4960515;28;20751;-87
2023/11/18 06:03:39;;;;;;;6.77;5.80;;;;;;;;;;4932701;28;20261;-85
2023/11/18 06:06:09;;;;;;;6.47;5.77;;;;;;;;;;4934678;28;20678;-83
2023/11/18 06:08:43;;;;;;;6.57;5.93;;;;;;;;;;4967418;28;20256;-83
2023/11/18 06:11:15;;;;;;;6.90;6.30;;;;;;;;;;4943293;28;20254;-83
2023/11/18 06:13:51;;;;;;;7.07;6.47;;;;;;;;;;4966004;28;20284;-83
2023/11/18 06:16:26;;;;;;;8.83;6.53;;;;;;;;;;4974074;28;20241;-84
2023/11/18 06:18:53;;;;;;;6.87;6.27;;;;;;;;;;4948668;28;20233;-83
2023/11/18 06:21:24;;;;;;;6.83;6.23;;;;;;;;;;4967092;28;20258;-84
2023/11/18 06:23:52;;;;;;;8.87;6.73;;;;;;;;;;4963262;28;20244;-83
2023/11/18 06:26:20;;;;;;;7.20;6.50;;;;;;;;;;4961521;28;20234;-84
2023/11/18 06:28:46;;;;;;;6.90;6.30;;;;;;;;;;4956593;28;20218;-84
2023/11/18 06:31:12;;;;;;;6.67;6.10;;;;;;;;;;4926513;28;20218;-83
2023/11/18 06:33:42;;;;;;;6.77;6.17;;;;;;;;;;4957288;28;20249;-84
2023/11/18 06:36:14;;;;;;;6.67;6.07;;;;;;;;;;4941096;28;20226;-85
2023/11/18 06:38:49;;;;;;;7.57;6.80;;;;;;;;;;4968371;28;20791;-84
2023/11/18 06:41:16;;;;;;;6.93;6.27;;;;;;;;;;4973657;28;20229;-86
2023/11/18 06:43:52;;;;;;;8.00;7.27;;;;;;;;;;4942248;28;20618;-85
2023/11/18 06:46:29;;;;;;;7.27;6.67;;;;;;;;;;4946505;28;20921;-87
2023/11/18 06:48:57;;;;;;;8.17;7.00;;;;;;;;;;4944279;28;20228;-86
2023/11/18 06:51:27;;;;;;;7.93;7.17;;;;;;;;;;4960370;28;20251;-86
2023/11/18 06:53:56;;;;;;;8.07;7.27;;;;;;;;;;4964200;28;20230;-88
2023/11/18 06:56:27;;;;;;;7.93;7.13;;;;;;;;;;4975982;28;20222;-84
2023/11/18 06:58:53;;;;;;;8.20;7.40;;;;;;;;;;4942797;28;20303;-87
2023/11/18 07:01:19;;;;;;;8.20;7.03;;;;;;;;;;4958683;28;20633;-86
2023/11/18 07:03:48;;;;;;;7.90;7.10;;;;;;;;;;4928071;28;20258;-85
2023/11/18 07:06:21;;;;;;;7.80;7.00;;;;;;;;;;4960459;28;20225;-85
2023/11/18 07:08:49;;;;;;;7.90;6.70;;;;;;;;;;4969291;28;20218;-85
2023/11/18 07:11:15;;;;;;;9.93;8.97;;;;;;;;;;4953021;28;20316;-85
2023/11/18 07:13:45;;;;;;;8.70;7.80;;;;;;;;;;4966682;28;20211;-86
2023/11/18 07:16:12;;;;;;;8.10;7.30;;;;;;;;;;4978889;28;20209;-83
2023/11/18 07:18:38;;;;;;;9.37;7.80;;;;;;;;;;4974629;28;20712;-86
2023/11/18 07:21:06;;;;;;;8.03;6.90;;;;;;;;;;4942401;28;20595;-82
2023/11/18 07:23:34;;;;;;;8.07;7.37;;;;;;;;;;4939926;28;20226;-86
2023/11/18 07:26:00;;;;;;;10.60;9.53;;;;;;;;;;4957525;28;20722;-85
2023/11/18 07:28:28;;;;;;;10.67;8.13;;;;;;;;;;4942948;28;20229;-87
2023/11/18 07:30:54;;;;;;;8.67;7.33;;;;;;;;;;4927434;28;20276;-85
2023/11/18 07:33:20;;;;;;;8.50;7.70;;;;;;;;;;4946482;28;20240;-85
2023/11/18 07:35:48;;;;;;;8.03;7.33;;;;;;;;;;4956900;28;20228;-86
2023/11/18 07:38:19;;;;;;;10.17;9.17;;;;;;;;;;4947423;28;20723;-84
2023/11/18 07:40:45;;;;;;;11.40;10.40;;;;;;;;;;4959799;28;20309;-87
2023/11/18 07:43:16;;;;;;;9.60;8.57;;;;;;;;;;4939269;28;22354;-86
2023/11/18 07:45:49;;;;;;;9.13;8.23;;;;;;;;;;4942311;28;20214;-86
2023/11/18 07:48:17;;;;;;;9.83;8.23;;;;;;;;;;4949678;28;20813;-87
2023/11/18 07:50:44;;;;;;;8.00;7.20;;;;;;;;;;4944286;28;20309;-87
2023/11/18 07:53:12;;;;;;;7.33;6.63;;;;;;;;;;4979129;28;20585;-85
2023/11/18 07:55:40;;;;;;;9.03;8.13;;;;;;;;;;4946714;28;20233;-86
2023/11/18 07:58:10;;;;;;;7.93;7.20;;;;;;;;;;4978293;28;20315;-87
2023/11/18 08:00:45;;;;;;;7.07;6.37;;;;;;;;;;4936133;28;20324;-86
2023/11/18 08:03:14;;;;;;;9.83;7.40;;;;;;;;;;4955605;28;20263;-86
2023/11/18 08:05:43;;;;;;;7.03;6.43;;;;;;;;;;4957542;28;20210;-86
2023/11/18 08:08:10;;;;;;;8.10;6.97;;;;;;;;;;4965263;28;20309;-83
2023/11/18 08:10:39;;;;;;;10.10;7.80;;;;;;;;;;4938971;28;20277;-87
2023/11/18 08:13:06;;;;;;;9.53;7.87;;;;;;;;;;4940120;28;20230;-85
2023/11/18 08:15:35;;;;;;;8.47;7.67;;;;;;;;;;4917626;28;20226;-85
2023/11/18 08:18:01;;;;;;;10.33;9.33;;;;;;;;;;4955892;28;20731;-85
2023/11/18 08:20:26;;;;;;;10.10;9.10;;;;;;;;;;4920020;28;20340;-80
2023/11/18 08:22:53;;;;;;;8.70;7.90;;;;;;;;;;4931572;28;20227;-79
2023/11/18 08:25:21;;;;;;;11.13;8.97;;;;;;;;;;4953610;28;20233;-78
2023/11/18 08:27:47;;;;;;;9.57;8.63;;;;;;;;;;4938847;28;20260;-78
2023/11/18 08:30:17;;;;;;;9.47;8.43;;;;;;;;;;4967975;28;20217;-79
2023/11/18 08:32:47;;;;;;;9.67;8.70;;;;;;;;;;4976459;28;20226;-80
2023/11/18 08:35:13;;;;;;;8.40;7.60;;;;;;;;;;4960944;28;20229;-80
2023/11/18 08:37:39;;;;;;;8.40;7.63;;;;;;;;;;4965677;28;20868;-80
2023/11/18 08:40:06;;;;;;;7.77;7.07;;;;;;;;;;4958884;28;20384;-80
2023/11/18 08:42:33;;;;;;;8.83;7.93;;;;;;;;;;4934015;28;20250;-80
2023/11/18 08:45:02;;;;;;;8.13;7.53;;;;;;;;;;4950903;28;20309;-80
2023/11/18 08:47:27;;;;;;;9.57;8.60;;;;;;;;;;4958991;28;20221;-79
2023/11/18 08:49:55;;;;;;;9.67;8.73;;;;;;;;;;4990791;28;20230;-79
2023/11/18 08:52:25;;;;;;;10.07;8.00;;;;;;;;;;4980958;28;20229;-78
2023/11/18 08:58:03;;;;;;;10.60;9.30;;;;;;;;;;4959080;28;20249;-79
2023/11/18 09:03:17;;;;;;;10.87;9.87;;;;;;;;;;4952718;28;20248;-80
2023/11/18 09:05:59;;;;;;;11.33;10.20;;;;;;;;;;4954610;28;20752;-80
2023/11/18 09:08:46;;;;;;;11.30;10.20;;;;;;;;;;4966205;28;20229;-81
2023/11/18 09:11:16;;;;;;;11.80;10.60;;;;;;;;;;4935101;28;20648;-79
2023/11/18 09:13:44;;;;;;;12.77;11.47;;;;;;;;;;4959462;28;20734;-81
2023/11/18 09:16:11;;;;;;;12.20;11.07;;;;;;;;;;4940419;28;20229;-80
2023/11/18 09:18:39;;;;;;;12.43;11.13;;;;;;;;;;4937200;28;20222;-80
2023/11/18 09:21:06;;;;;;;13.57;12.23;;;;;;;;;;4989116;28;20281;-84
2023/11/18 09:23:34;;;;;;;13.73;12.30;;;;;;;;;;4938561;28;20228;-84
2023/11/18 09:26:00;;;;;;;14.60;12.17;;;;;;;;;;4953814;28;20229;-85
2023/11/18 09:28:29;;;;;;;14.17;12.50;;;;;;;;;;4985264;28;20631;-81
2023/11/18 09:30:57;;;;;;;14.67;13.10;;;;;;;;;;4971573;28;20212;-79
2023/11/18 09:33:33;;;;;;;12.90;11.60;;;;;;;;;;4948507;28;21788;-80
2023/11/18 09:36:00;;;;;;;13.20;11.80;;;;;;;;;;4962120;28;20209;-80
2023/11/18 09:38:30;;;;;;;12.37;11.17;;;;;;;;;;4945413;28;20559;-80
2023/11/18 09:41:02;;;;;;;14.33;12.17;;;;;;;;;;4956572;28;20229;-81
2023/11/18 09:43:46;;;;;;;12.73;11.43;;;;;;;;;;4961880;28;20230;-80
2023/11/18 09:46:32;;;;;;;12.43;11.23;;;;;;;;;;4983120;28;20226;-79
2023/11/18 09:49:17;;;;;;;13.93;10.57;;;;;;;;;;4965347;28;20225;-80
2023/11/18 09:51:46;;;;;;;14.37;12.47;;;;;;;;;;4951175;28;20238;-80
2023/11/18 09:54:29;;;;;;;12.50;11.20;;;;;;;;;;4953810;28;20299;-80
2023/11/18 09:57:34;;;;;;;17.57;12.60;;;;;;;;;;4980767;28;20312;-79
2023/11/18 10:02:52;;;;;;;28.83;13.80;;;;;;;;;;4980634;28;20221;-79
2023/11/18 10:05:22;;;;;;;14.73;13.17;;;;;;;;;;4931192;28;20245;-80
2023/11/18 10:07:48;;;;;;;17.80;13.83;;;;;;;;;;4977962;28;20226;-81
2023/11/18 10:10:14;;;;;;;29.53;14.90;;;;;;;;;;4946412;28;20213;-80
2023/11/18 10:12:43;;;;;;;60.50;15.57;;;;;;;;;;4962063;28;20245;-80
2023/11/18 10:15:11;;;;;;;66.40;16.73;;;;;;;;;;4948103;28;20269;-79
2023/11/18 10:20:44;;;;;;;37.33;15.53;;;;;;;;;;4965251;28;20314;-79
2023/11/18 10:23:12;;;;;;;35.23;16.27;;;;;;;;;;4979948;28;20237;-81
2023/11/18 10:25:53;;;;;;;20.27;17.00;;;;;;;;;;4959614;28;20424;-81
2023/11/18 10:28:36;;;;;;;18.40;16.60;;;;;;;;;;4953789;28;20250;-85
2023/11/18 10:31:04;;;;;;;18.73;16.83;;;;;;;;;;4973969;28;20231;-85
2023/11/18 10:33:37;;;;;;;26.37;18.67;;;;;;;;;;4971194;28;20359;-85
2023/11/18 10:36:03;;;;;;;21.30;19.10;;;;;;;;;;4945458;28;20236;-85
2023/11/18 10:38:36;;;;;;;21.47;19.37;;;;;;;;;;4953496;28;20222;-86
2023/11/18 10:41:07;;;;;;;21.63;18.20;;;;;;;;;;4962511;28;20228;-86
2023/11/18 10:43:35;;;;;;;23.57;21.17;;;;;;;;;;4972664;28;20837;-86
2023/11/18 10:46:14;;;;;;;22.83;20.43;;;;;;;;;;4960423;28;20214;-84
2023/11/18 10:48:47;;;;;;;24.40;21.77;;;;;;;;;;4987861;28;20630;-85
2023/11/18 10:51:16;;;;;;;25.13;22.53;;;;;;;;;;4970111;28;20660;-86
2023/11/18 10:53:53;;;;;;;24.50;21.83;;;;;;;;;;4951644;28;20217;-84
2023/11/18 10:56:26;;;;;;;29.03;25.97;;;;;;;;;;4937462;28;20214;-85
2023/11/18 10:59:00;;;;;;;27.83;24.97;;;;;;;;;;4963440;28;20227;-84
2023/11/18 11:01:38;;;;;;;27.23;24.23;;;;;;;;;;4972370;28;20244;-84
2023/11/18 11:04:10;;;;;;;28.20;24.67;;;;;;;;;;4977053;28;20229;-85
2023/11/18 11:06:46;;;;;;;29.23;26.03;;;;;;;;;;4968487;28;20270;-84
2023/11/18 11:09:17;;;;;;;31.20;25.90;;;;;;;;;;4952495;28;20221;-83
2023/11/18 11:11:53;;;;;;;28.13;25.20;;;;;;;;;;4956928;28;20260;-84
2023/11/18 11:14:21;;;;;;;35.40;26.53;;;;;;;;;;4972075;28;20585;-85
2023/11/18 11:16:53;;;;;;;34.77;27.73;;;;;;;;;;4975013;28;20295;-82
2023/11/18 11:19:26;;;;;;;31.30;27.80;;;;;;;;;;4975280;28;20236;-84
2023/11/18 11:22:15;;;;;;;35.53;30.33;;;;;;;;;;4993024;28;20240;-86
2023/11/18 11:25:22;;;;;;;34.40;28.27;;;;;;;;;;4951484;28;20230;-84
2023/11/18 11:28:01;;;;;;;36.17;32.17;;;;;;;;;;4950700;28;20237;-84
2023/11/18 11:30:44;;;;;;;34.67;30.43;;;;;;;;;;4962064;28;20233;-85
2023/11/18 11:33:54;;;;;;;42.30;37.70;;;;;;;;;;4982232;28;20639;-84
2023/11/18 11:36:27;;;;;;;34.03;29.40;;;;;;;;;;4959993;28;20252;-84
2023/11/18 11:38:52;;;;;;;37.03;30.27;;;;;;;;;;4974334;28;20221;-86
2023/11/18 11:41:26;;;;;;;43.87;39.13;;;;;;;;;;4973345;28;20234;-86
2023/11/18 11:43:57;;;;;;;33.70;30.07;;;;;;;;;;4976643;28;20217;-85
2023/11/18 11:46:24;;;;;;;39.17;33.03;;;;;;;;;;4934326;28;20307;-87
2023/11/18 11:48:53;;;;;;;32.10;28.20;;;;;;;;;;4936523;28;20234;-84
2023/11/18 11:51:30;;;;;;;35.10;30.83;;;;;;;;;;4953187;28;20237;-85
2023/11/18 11:54:07;;;;;;;34.33;30.60;;;;;;;;;;4954044;28;20218;-85
2023/11/18 11:56:43;;;;;;;37.40;29.80;;;;;;;;;;4982570;28;20229;-85
2023/11/18 11:59:12;;;;;;;37.07;29.77;;;;;;;;;;4955721;28;20280;-85
2023/11/18 12:01:52;;;;;;;33.47;29.70;;;;;;;;;;4954298;28;20251;-85
2023/11/18 12:04:21;;;;;;;34.60;30.47;;;;;;;;;;4977132;28;20242;-86
2023/11/18 12:06:53;;;;;;;32.37;28.93;;;;;;;;;;4948029;28;20217;-85
2023/11/18 12:09:32;;;;;;;31.50;28.23;;;;;;;;;;4965016;28;20240;-84
2023/11/18 12:12:02;;;;;;;30.60;27.37;;;;;;;;;;4976526;28;20237;-84
2023/11/18 12:17:00;;;;;;;35.57;31.30;;;;;;;;;;4941350;28;20210;-83
2023/11/18 12:19:36;;;;;;;34.07;29.60;;;;;;;;;;4938169;28;20233;-85
2023/11/18 12:22:12;;;;;;;34.23;29.87;;;;;;;;;;4938500;28;20221;-85
2023/11/18 12:24:39;;;;;;;32.20;28.47;;;;;;;;;;4956488;28;20226;-85
2023/11/18 12:27:12;;;;;;;34.93;28.30;;;;;;;;;;4959443;28;20277;-85
2023/11/18 12:29:50;;;;;;;30.63;26.77;;;;;;;;;;4948785;28;20213;-85
2023/11/18 12:32:53;;;;;;;33.87;27.10;;;;;;;;;;4974490;28;20237;-84
2023/11/18 12:35:18;;;;;;;30.17;26.23;;;;;;;;;;4930933;28;20698;-85
2023/11/18 12:37:53;;;;;;;27.43;24.47;;;;;;;;;;4943199;28;20224;-85
2023/11/18 12:40:46;;;;;;;30.40;26.73;;;;;;;;;;4950377;28;20230;-83
2023/11/18 12:43:17;;;;;;;28.37;25.47;;;;;;;;;;4966122;28;20286;-87
2023/11/18 12:45:55;;;;;;;29.33;26.07;;;;;;;;;;4935799;28;20607;-85
2023/11/18 12:48:26;;;;;;;28.37;25.47;;;;;;;;;;4967872;28;20244;-84
2023/11/18 12:50:55;;;;;;;31.03;25.93;;;;;;;;;;4953964;28;20218;-84
2023/11/18 12:53:26;;;;;;;28.90;25.80;;;;;;;;;;4931359;28;20707;-85
2023/11/18 12:55:54;;;;;;;27.43;24.43;;;;;;;;;;4955881;28;20297;-87
2023/11/18 12:58:19;;;;;;;28.17;25.40;;;;;;;;;;4932653;28;20217;-85
2023/11/18 13:00:47;;;;;;;29.83;25.87;;;;;;;;;;4953082;28;20329;-84
2023/11/18 13:03:15;;;;;;;29.13;26.03;;;;;;;;;;4964731;28;20671;-84
2023/11/18 13:05:43;;;;;;;27.70;24.80;;;;;;;;;;4963597;28;20258;-86
2023/11/18 13:08:09;;;;;;;29.17;25.57;;;;;;;;;;4938962;28;20824;-85
2023/11/18 13:10:36;;;;;;;31.27;25.80;;;;;;;;;;4938960;28;20241;-86
2023/11/18 13:13:08;;;;;;;30.27;27.00;;;;;;;;;;4933635;28;20227;-85
2023/11/18 13:15:35;;;;;;;31.73;26.70;;;;;;;;;;4972044;28;20284;-83
2023/11/18 13:18:09;;;;;;;33.73;27.57;;;;;;;;;;4936756;28;20214;-86
2023/11/18 13:20:39;;;;;;;29.87;26.90;;;;;;;;;;4938260;28;20270;-84
2023/11/18 13:23:08;;;;;;;29.33;26.17;;;;;;;;;;4934169;28;20768;-86
2023/11/18 13:25:41;;;;;;;31.20;26.07;;;;;;;;;;4957817;28;20300;-86
2023/11/18 13:28:12;;;;;;;28.67;25.60;;;;;;;;;;4973703;28;20220;-86
2023/11/18 13:30:38;;;;;;;31.73;27.67;;;;;;;;;;4952357;28;20221;-86
2023/11/18 13:33:04;;;;;;;32.80;27.80;;;;;;;;;;4974966;28;20876;-86
2023/11/18 13:35:30;;;;;;;31.03;27.23;;;;;;;;;;4954187;28;20240;-86
2023/11/18 13:37:56;;;;;;;29.67;26.47;;;;;;;;;;4957844;28;20589;-85
2023/11/18 13:40:23;;;;;;;30.30;26.63;;;;;;;;;;4953335;28;20225;-85
2023/11/18 13:43:05;;;;;;;31.53;27.53;;;;;;;;;;4954937;28;20236;-86
2023/11/18 13:45:30;;;;;;;32.53;26.47;;;;;;;;;;4948671;28;20228;-85
2023/11/18 13:47:59;;;;;;;29.10;25.50;;;;;;;;;;4931237;28;20228;-85
2023/11/18 13:50:28;;;;;;;31.43;28.00;;;;;;;;;;4962392;28;20222;-85
2023/11/18 13:52:56;;;;;;;30.83;27.47;;;;;;;;;;4970054;28;20242;-87
2023/11/18 13:55:27;;;;;;;34.40;29.30;;;;;;;;;;4973623;28;20227;-84
2023/11/18 13:57:57;;;;;;;33.37;28.23;;;;;;;;;;4969062;28;20232;-85
2023/11/18 14:00:27;;;;;;;32.30;28.70;;;;;;;;;;4943971;28;20715;-85
2023/11/18 14:02:56;;;;;;;32.93;29.37;;;;;;;;;;4961249;28;20229;-85
2023/11/18 14:05:24;;;;;;;32.30;28.70;;;;;;;;;;4957493;28;20210;-86
2023/11/18 14:07:59;;;;;;;35.87;29.77;;;;;;;;;;4948389;28;20271;-85
2023/11/18 14:10:27;;;;;;;37.27;30.00;;;;;;;;;;4938490;28;20221;-83
2023/11/18 14:13:02;;;;;;;37.10;30.00;;;;;;;;;;4951929;28;20321;-83
2023/11/18 14:15:28;;;;;;;39.47;29.80;;;;;;;;;;4984374;28;20229;-85
2023/11/18 14:17:54;;;;;;;35.77;30.77;;;;;;;;;;5003287;28;20220;-86
2023/11/18 14:20:22;;;;;;;35.20;28.90;;;;;;;;;;4955386;28;20233;-84
2023/11/18 14:22:52;;;;;;;34.70;29.93;;;;;;;;;;4948199;28;20225;-86
2023/11/18 14:25:19;;;;;;;33.57;29.90;;;;;;;;;;4985213;28;20221;-86
2023/11/18 14:27:49;;;;;;;33.93;28.63;;;;;;;;;;4974276;28;20304;-85
2023/11/18 14:30:16;;;;;;;35.97;30.33;;;;;;;;;;4985968;28;20644;-88
2023/11/18 14:32:42;;;;;;;36.53;30.80;;;;;;;;;;4975915;28;20216;-86
2023/11/18 14:35:11;;;;;;;35.10;30.73;;;;;;;;;;4955903;28;20725;-85
2023/11/18 14:37:45;;;;;;;33.63;30.03;;;;;;;;;;4973137;28;20229;-86
2023/11/18 14:40:13;;;;;;;33.13;29.40;;;;;;;;;;4915575;28;20226;-85
2023/11/18 14:42:48;;;;;;;34.97;29.83;;;;;;;;;;4946761;28;20234;-86
2023/11/18 14:45:16;;;;;;;36.53;29.33;;;;;;;;;;4968385;28;20593;-86
2023/11/18 14:47:58;;;;;;;31.73;27.97;;;;;;;;;;4947631;28;20222;-87
2023/11/18 14:50:31;;;;;;;31.87;28.20;;;;;;;;;;4972326;28;20220;-86
2023/11/18 14:52:59;;;;;;;34.40;29.00;;;;;;;;;;4955427;28;20286;-86
2023/11/18 14:55:28;;;;;;;34.10;27.87;;;;;;;;;;4939158;28;20277;-87
2023/11/18 14:57:55;;;;;;;36.47;28.90;;;;;;;;;;4933175;28;20219;-78
2023/11/18 15:00:26;;;;;;;32.43;28.77;;;;;;;;;;4958493;28;20230;-79
2023/11/18 15:02:56;;;;;;;32.20;27.43;;;;;;;;;;4962800;28;20222;-79
2023/11/18 15:05:22;;;;;;;35.43;29.10;;;;;;;;;;4962029;28;20220;-77